Time;durP1;ratioP1;P1;durP2;ratioP2;P2;SDS_P1;SDS_P2;PMS_P1;PMS_P2;Temp;Humidity;BMP_temperature;BMP_pressure;BME280_temperature;BME280_humidity;BME280_pressure;Samples;Min_cycle;Max_cycle;Signal;HPM_P1;HPM_P2
2023/08/27 00:04:32;;;;;;;1.85;0.88;;;;;;;;;;20997734;28;20080;-61
2023/08/27 00:14:33;;;;;;;3.58;1.15;;;;;;;;;;20996931;28;20509;-61
2023/08/27 00:24:34;;;;;;;3.40;0.70;;;;;;;;;;20996953;28;20496;-61
2023/08/27 00:34:36;;;;;;;2.55;0.68;;;;;;;;;;20995265;28;20090;-60
2023/08/27 00:44:37;;;;;;;3.20;0.70;;;;;;;;;;20996164;28;20492;-61
2023/08/27 00:54:40;;;;;;;0.73;0.50;;;;;;;;;;20996389;28;20068;-61
2023/08/27 01:04:41;;;;;;;1.25;0.60;;;;;;;;;;21007987;28;20053;-61
2023/08/27 01:14:43;;;;;;;7.53;1.27;;;;;;;;;;21009494;28;20040;-61
2023/08/27 01:24:44;;;;;;;1.48;0.40;;;;;;;;;;21009853;28;20554;-60
2023/08/27 01:34:46;;;;;;;3.78;0.50;;;;;;;;;;21009243;28;20483;-61
2023/08/27 01:44:47;;;;;;;2.10;0.60;;;;;;;;;;21008594;28;20477;-60
2023/08/27 01:54:48;;;;;;;1.20;0.50;;;;;;;;;;21007281;28;20504;-61
2023/08/27 02:04:49;;;;;;;2.63;0.70;;;;;;;;;;21007019;28;20056;-60
2023/08/27 02:14:50;;;;;;;2.20;0.68;;;;;;;;;;21005128;28;20052;-61
2023/08/27 02:24:52;;;;;;;1.00;0.60;;;;;;;;;;21005343;28;20040;-61
2023/08/27 02:34:53;;;;;;;1.75;0.60;;;;;;;;;;21003632;28;20043;-61
2023/08/27 02:44:55;;;;;;;2.95;0.52;;;;;;;;;;21003762;28;20040;-59
2023/08/27 02:54:56;;;;;;;6.15;1.90;;;;;;;;;;21002411;28;20085;-61
2023/08/27 03:04:58;;;;;;;1.52;0.90;;;;;;;;;;21000814;28;20052;-61
2023/08/27 03:14:59;;;;;;;1.10;0.82;;;;;;;;;;21001300;28;20051;-61
2023/08/27 03:25:01;;;;;;;1.40;0.80;;;;;;;;;;21000130;28;20036;-60
2023/08/27 03:35:02;;;;;;;3.53;0.70;;;;;;;;;;20999711;28;20057;-61
2023/08/27 03:45:03;;;;;;;1.38;0.70;;;;;;;;;;20997780;28;20048;-61
2023/08/27 03:55:05;;;;;;;1.65;0.52;;;;;;;;;;20997638;28;20091;-60
2023/08/27 04:05:06;;;;;;;0.70;0.30;;;;;;;;;;20997883;28;20498;-61
2023/08/27 04:15:07;;;;;;;1.42;0.50;;;;;;;;;;20996092;28;20043;-61
2023/08/27 04:25:09;;;;;;;0.98;0.40;;;;;;;;;;20997009;28;20036;-61
2023/08/27 04:35:10;;;;;;;1.33;0.50;;;;;;;;;;21001030;28;20058;-60
2023/08/27 04:45:12;;;;;;;1.17;0.40;;;;;;;;;;21013293;28;20052;-60
2023/08/27 04:55:13;;;;;;;4.88;0.60;;;;;;;;;;21011250;28;20052;-60
2023/08/27 05:05:15;;;;;;;0.82;0.40;;;;;;;;;;21011623;28;20505;-62
2023/08/27 05:15:20;;;;;;;2.00;0.43;;;;;;;;;;21010919;28;20375;-61
2023/08/27 05:25:21;;;;;;;0.88;0.40;;;;;;;;;;21008811;28;20116;-61
2023/08/27 05:35:24;;;;;;;9.90;0.68;;;;;;;;;;21008016;28;20493;-61
2023/08/27 05:45:25;;;;;;;3.50;0.30;;;;;;;;;;21008101;28;20048;-62
2023/08/27 05:55:26;;;;;;;0.98;0.30;;;;;;;;;;21006667;28;20402;-61
2023/08/27 06:05:27;;;;;;;4.50;0.40;;;;;;;;;;21007242;28;20044;-60
2023/08/27 06:15:30;;;;;;;6.43;0.30;;;;;;;;;;21006251;28;20409;-60
2023/08/27 06:25:35;;;;;;;1.08;0.50;;;;;;;;;;21005389;28;20048;-60
2023/08/27 06:35:36;;;;;;;1.02;0.40;;;;;;;;;;21003423;28;20105;-61
2023/08/27 06:45:37;;;;;;;2.78;0.30;;;;;;;;;;21003712;28;20044;-61
2023/08/27 06:55:38;;;;;;;1.10;0.40;;;;;;;;;;21002805;28;20106;-60
2023/08/27 07:05:39;;;;;;;1.35;0.47;;;;;;;;;;21001901;28;20079;-61
2023/08/27 07:15:41;;;;;;;4.28;0.30;;;;;;;;;;21001109;28;20048;-62
2023/08/27 07:25:42;;;;;;;2.85;0.28;;;;;;;;;;20999330;28;20045;-61
2023/08/27 07:35:43;;;;;;;1.90;0.25;;;;;;;;;;20999685;28;20553;-60
2023/08/27 07:45:44;;;;;;;1.80;0.50;;;;;;;;;;20998724;28;20102;-61
2023/08/27 07:55:45;;;;;;;1.10;0.30;;;;;;;;;;20999174;28;20056;-62
2023/08/27 08:05:48;;;;;;;2.42;0.30;;;;;;;;;;20996150;28;20049;-61
2023/08/27 08:15:50;;;;;;;1.85;0.20;;;;;;;;;;20996388;28;20170;-61
2023/08/27 08:25:51;;;;;;;3.83;0.50;;;;;;;;;;20996993;28;20086;-61
2023/08/27 08:35:52;;;;;;;1.40;0.30;;;;;;;;;;20996496;28;20093;-61
2023/08/27 08:46:03;;;;;;;4.22;0.40;;;;;;;;;;20994664;28;20098;-61
2023/08/27 08:56:06;;;;;;;0.55;0.10;;;;;;;;;;20996686;28;20182;-61
2023/08/27 09:06:07;;;;;;;2.42;0.52;;;;;;;;;;20994978;28;20048;-60
2023/08/27 09:16:09;;;;;;;0.68;0.20;;;;;;;;;;20994952;28;20040;-60
2023/08/27 09:26:12;;;;;;;0.95;0.30;;;;;;;;;;21007292;28;20048;-60
2023/08/27 09:36:17;;;;;;;0.88;0.28;;;;;;;;;;21008709;28;20455;-62
2023/08/27 09:46:19;;;;;;;0.40;0.15;;;;;;;;;;21008780;28;20473;-60
2023/08/27 09:56:23;;;;;;;1.88;0.20;;;;;;;;;;21006798;28;20494;-61
2023/08/27 10:06:24;;;;;;;5.43;0.40;;;;;;;;;;21006369;28;20052;-61
2023/08/27 10:16:29;;;;;;;1.10;0.63;;;;;;;;;;21006502;28;20040;-61
2023/08/27 10:26:31;;;;;;;1.60;0.30;;;;;;;;;;21004946;28;20044;-61
2023/08/27 10:36:34;;;;;;;10.45;7.15;;;;;;;;;;21002986;28;20135;-61
2023/08/27 10:46:35;;;;;;;1.33;0.70;;;;;;;;;;21004106;28;20048;-62
2023/08/27 10:56:37;;;;;;;4.82;0.50;;;;;;;;;;21001045;28;20090;-61
2023/08/27 11:06:44;;;;;;;0.73;0.40;;;;;;;;;;21000367;28;20166;-62
2023/08/27 11:17:04;;;;;;;1.65;0.63;;;;;;;;;;21001025;28;20119;-61
2023/08/27 11:27:06;;;;;;;2.40;0.40;;;;;;;;;;21000092;28;20438;-61
2023/08/27 11:37:08;;;;;;;3.20;0.32;;;;;;;;;;20999520;28;20120;-62
2023/08/27 11:47:09;;;;;;;1.33;0.30;;;;;;;;;;20998826;28;20041;-62
2023/08/27 11:57:10;;;;;;;1.08;0.45;;;;;;;;;;20996508;28;20075;-61
2023/08/27 12:07:11;;;;;;;3.67;0.50;;;;;;;;;;20997549;28;20053;-61
2023/08/27 12:17:14;;;;;;;1.13;0.57;;;;;;;;;;20997103;28;20045;-61
2023/08/27 12:27:16;;;;;;;1.52;0.43;;;;;;;;;;20995548;28;20049;-62
2023/08/27 12:37:18;;;;;;;0.63;0.40;;;;;;;;;;20996471;28;20041;-61
2023/08/27 12:47:19;;;;;;;1.60;0.70;;;;;;;;;;20994401;28;20051;-61
2023/08/27 12:57:20;;;;;;;0.85;0.43;;;;;;;;;;21001634;28;20053;-60
2023/08/27 13:07:21;;;;;;;0.50;0.20;;;;;;;;;;21011454;28;20470;-62
2023/08/27 13:17:22;;;;;;;1.40;0.63;;;;;;;;;;21009066;28;20102;-60
2023/08/27 13:27:23;;;;;;;2.72;0.70;;;;;;;;;;21008115;28;20052;-61
2023/08/27 13:37:24;;;;;;;3.30;1.30;;;;;;;;;;21008762;28;20037;-60
2023/08/27 13:47:26;;;;;;;1.13;0.60;;;;;;;;;;21008136;28;20087;-61
2023/08/27 13:57:27;;;;;;;2.85;0.60;;;;;;;;;;21006474;28;20511;-61
2023/08/27 14:07:28;;;;;;;3.25;0.70;;;;;;;;;;21005167;28;20058;-61
2023/08/27 14:17:29;;;;;;;3.65;0.95;;;;;;;;;;21006167;28;20040;-61
2023/08/27 14:27:31;;;;;;;2.70;0.55;;;;;;;;;;21005518;28;20037;-62
2023/08/27 14:37:32;;;;;;;1.15;0.65;;;;;;;;;;21004977;28;20401;-61
2023/08/27 14:47:33;;;;;;;1.00;0.60;;;;;;;;;;21003958;28;20509;-62
2023/08/27 14:57:34;;;;;;;2.50;0.40;;;;;;;;;;21001629;28;20082;-61
2023/08/27 15:07:36;;;;;;;2.17;0.77;;;;;;;;;;21002233;28;20050;-62
2023/08/27 15:17:39;;;;;;;1.33;0.50;;;;;;;;;;21001251;28;20036;-61
2023/08/27 15:27:40;;;;;;;1.58;0.50;;;;;;;;;;21000435;28;20052;-61
2023/08/27 15:37:41;;;;;;;2.30;0.60;;;;;;;;;;20998587;28;20093;-61
2023/08/27 15:47:46;;;;;;;6.30;0.93;;;;;;;;;;20998939;28;20076;-61
2023/08/27 15:57:47;;;;;;;1.35;0.70;;;;;;;;;;20999471;28;20158;-61
2023/08/27 16:07:49;;;;;;;2.63;0.68;;;;;;;;;;20997984;28;20048;-61
2023/08/27 16:17:50;;;;;;;1.20;0.60;;;;;;;;;;20996100;28;20059;-60
2023/08/27 16:27:51;;;;;;;1.33;0.60;;;;;;;;;;20995937;28;20080;-61
2023/08/27 16:37:52;;;;;;;1.30;0.50;;;;;;;;;;20996316;28;20076;-61
2023/08/27 16:47:53;;;;;;;0.63;0.30;;;;;;;;;;20996409;28;20044;-62
2023/08/27 16:57:54;;;;;;;2.67;0.65;;;;;;;;;;20994451;28;20109;-61
2023/08/27 17:07:55;;;;;;;3.25;0.95;;;;;;;;;;20995154;28;20083;-61
2023/08/27 17:17:56;;;;;;;1.10;0.60;;;;;;;;;;20994566;28;20123;-62
2023/08/27 17:27:57;;;;;;;1.17;0.63;;;;;;;;;;20994298;28;20116;-61
2023/08/27 17:37:59;;;;;;;1.27;0.60;;;;;;;;;;20993819;28;20048;-61
2023/08/27 17:48:12;;;;;;;1.10;0.60;;;;;;;;;;21004945;28;20127;-61
2023/08/27 17:58:13;;;;;;;0.95;0.60;;;;;;;;;;21008496;28;20062;-60
2023/08/27 18:08:16;;;;;;;1.00;0.60;;;;;;;;;;21006232;28;20087;-59
2023/08/27 18:18:18;;;;;;;2.97;0.70;;;;;;;;;;21004517;28;20078;-58
2023/08/27 18:28:19;;;;;;;1.98;0.70;;;;;;;;;;21004823;28;20055;-59
2023/08/27 18:38:20;;;;;;;0.82;0.50;;;;;;;;;;21004555;28;20052;-59
2023/08/27 18:48:22;;;;;;;2.47;0.80;;;;;;;;;;21004214;28;20046;-60
2023/08/27 18:58:23;;;;;;;0.75;0.40;;;;;;;;;;21000295;28;20056;-59
2023/08/27 19:08:24;;;;;;;1.95;0.73;;;;;;;;;;20999977;28;20052;-60
2023/08/27 19:18:25;;;;;;;2.47;0.63;;;;;;;;;;21000978;28;20044;-60
2023/08/27 19:28:26;;;;;;;2.35;1.00;;;;;;;;;;20999093;28;20036;-59
2023/08/27 19:38:27;;;;;;;2.95;0.80;;;;;;;;;;20999938;28;20048;-60
2023/08/27 19:48:29;;;;;;;2.38;0.40;;;;;;;;;;20999058;28;20093;-60
2023/08/27 20:08:50;;;;;;;3.65;0.68;;;;;;;;;;20997642;28;20374;-61
2023/08/27 20:18:51;;;;;;;0.90;0.52;;;;;;;;;;20997747;28;20053;-62
2023/08/27 20:28:52;;;;;;;1.88;0.50;;;;;;;;;;20997118;28;20124;-62
2023/08/27 20:38:53;;;;;;;2.28;0.70;;;;;;;;;;20996713;28;20119;-61
2023/08/27 20:48:54;;;;;;;0.60;0.40;;;;;;;;;;20996053;28;20040;-62
2023/08/27 20:58:56;;;;;;;1.10;0.50;;;;;;;;;;20996137;28;20036;-60
2023/08/27 21:08:57;;;;;;;2.05;0.38;;;;;;;;;;20995649;28;20129;-61
2023/08/27 21:18:58;;;;;;;0.80;0.35;;;;;;;;;;21003590;28;20058;-60
2023/08/27 21:28:59;;;;;;;2.03;0.40;;;;;;;;;;21010283;28;20072;-60
2023/08/27 21:39:00;;;;;;;1.55;0.60;;;;;;;;;;21009694;28;20044;-61
2023/08/27 21:49:01;;;;;;;2.83;0.80;;;;;;;;;;21008618;28;20052;-60
2023/08/27 21:59:02;;;;;;;2.17;0.40;;;;;;;;;;21007053;28;20052;-60
2023/08/27 22:09:05;;;;;;;2.50;0.47;;;;;;;;;;21005908;28;20059;-60
2023/08/27 22:19:06;;;;;;;2.15;0.22;;;;;;;;;;21005254;28;20044;-61
2023/08/27 22:29:08;;;;;;;1.20;0.30;;;;;;;;;;21004559;28;20044;-61
2023/08/27 22:39:10;;;;;;;1.08;0.30;;;;;;;;;;21003619;28;20053;-60
2023/08/27 22:49:13;;;;;;;1.25;0.70;;;;;;;;;;21003880;28;20464;-61
2023/08/27 22:59:14;;;;;;;1.25;1.00;;;;;;;;;;21003972;28;20045;-61
2023/08/27 23:09:15;;;;;;;0.47;0.30;;;;;;;;;;21002693;28;20049;-60
2023/08/27 23:19:16;;;;;;;1.88;0.52;;;;;;;;;;21001923;28;20103;-61
2023/08/27 23:29:17;;;;;;;0.50;0.20;;;;;;;;;;21001016;28;20048;-61
2023/08/27 23:39:18;;;;;;;1.63;0.30;;;;;;;;;;20999990;28;20562;-61
2023/08/27 23:49:20;;;;;;;0.30;0.20;;;;;;;;;;20997900;28;20059;-61
2023/08/27 23:59:21;;;;;;;1.73;0.30;;;;;;;;;;20998885;28;20049;-62
